createdAt,value
2023-03-16T00:00:04.255Z,1.82
2023-03-16T00:02:31.297Z,1.82
2023-03-16T00:04:58.716Z,1.84
2023-03-16T00:07:26.531Z,1.89
2023-03-16T00:09:54.771Z,1.92
2023-03-16T00:12:22.764Z,1.92
2023-03-16T00:14:50.158Z,1.91
2023-03-16T00:17:20.510Z,1.91
2023-03-16T00:19:55.598Z,1.88
2023-03-16T00:22:25.153Z,1.86
2023-03-16T00:24:55.591Z,1.83
2023-03-16T00:27:25.446Z,1.77
2023-03-16T00:29:57.252Z,1.71
2023-03-16T00:32:29.584Z,1.65
2023-03-16T00:34:56.995Z,1.64
2023-03-16T00:37:26.391Z,1.65
2023-03-16T00:39:58.185Z,1.69
2023-03-16T00:42:27.917Z,1.71
2023-03-16T00:44:59.246Z,1.74
2023-03-16T00:47:30.483Z,1.76
2023-03-16T00:49:58.084Z,1.78
2023-03-16T00:52:27.734Z,1.80
2023-03-16T00:54:56.210Z,1.80
2023-03-16T00:57:25.610Z,1.78
2023-03-16T00:59:52.956Z,1.75
2023-03-16T01:02:24.816Z,1.71
2023-03-16T01:04:54.773Z,1.68
2023-03-16T01:07:22.377Z,1.67
2023-03-16T01:09:51.010Z,1.66
2023-03-16T01:12:19.781Z,1.67
2023-03-16T01:14:47.983Z,1.68
2023-03-16T01:17:17.423Z,1.66
2023-03-16T01:19:45.260Z,1.62
2023-03-16T01:22:12.446Z,1.59
2023-03-16T01:24:40.845Z,1.56
2023-03-16T01:27:09.047Z,1.55
2023-03-16T01:29:37.491Z,1.57
2023-03-16T01:32:05.553Z,1.57
2023-03-16T01:34:34.389Z,1.58
2023-03-16T01:37:01.948Z,1.57
2023-03-16T01:39:55.730Z,1.52
2023-03-16T01:42:24.169Z,1.50
2023-03-16T01:44:56.304Z,1.47
2023-03-16T01:47:28.442Z,1.44
2023-03-16T01:49:57.731Z,1.44
2023-03-16T01:52:33.429Z,1.39
2023-03-16T01:55:06.154Z,1.36
2023-03-16T01:57:39.848Z,1.34
2023-03-16T02:00:20.044Z,1.34
2023-03-16T02:03:15.198Z,1.32
2023-03-16T02:05:59.698Z,1.32
2023-03-16T02:08:28.667Z,1.35
2023-03-16T02:10:57.086Z,1.36
2023-03-16T02:13:32.954Z,1.35
2023-03-16T02:16:00.949Z,1.34
2023-03-16T02:18:28.874Z,1.33
2023-03-16T02:21:36.504Z,1.31
2023-03-16T02:24:04.822Z,1.31
2023-03-16T02:26:45.248Z,1.30
2023-03-16T02:29:30.095Z,1.26
2023-03-16T02:31:59.117Z,1.22
2023-03-16T02:34:28.063Z,1.20
2023-03-16T02:36:57.209Z,1.23
2023-03-16T02:39:25.052Z,1.22
2023-03-16T02:41:53.200Z,1.22
2023-03-16T02:44:26.547Z,1.23
2023-03-16T02:46:58.384Z,1.24
2023-03-16T02:49:33.264Z,1.25
2023-03-16T02:52:00.386Z,1.22
2023-03-16T02:54:27.971Z,1.22
2023-03-16T02:56:55.125Z,1.20
2023-03-16T02:59:23.373Z,1.14
2023-03-16T03:01:51.584Z,1.11
2023-03-16T03:04:18.853Z,1.12
2023-03-16T03:06:48.487Z,1.11
2023-03-16T03:09:16.611Z,1.09
2023-03-16T03:11:43.740Z,1.05
2023-03-16T03:14:10.913Z,1.05
2023-03-16T03:16:38.795Z,1.07
2023-03-16T03:19:06.134Z,1.05
2023-03-16T03:21:35.750Z,1.05
2023-03-16T03:24:02.893Z,1.03
2023-03-16T03:26:30.084Z,1.00
2023-03-16T03:28:58.990Z,0.98
2023-03-16T03:31:26.179Z,0.99
2023-03-16T03:33:53.765Z,0.96
2023-03-16T03:36:22.385Z,0.94
2023-03-16T03:38:49.869Z,0.95
2023-03-16T03:41:18.792Z,0.97
2023-03-16T03:43:46.811Z,0.99
2023-03-16T03:46:15.970Z,1.02
2023-03-16T03:48:43.259Z,1.03
2023-03-16T03:51:10.360Z,1.04
2023-03-16T03:53:46.583Z,1.06
2023-03-16T03:56:25.319Z,1.04
2023-03-16T03:58:52.627Z,1.02
2023-03-16T04:01:28.321Z,1.00
2023-03-16T04:03:55.444Z,0.99
2023-03-16T04:06:22.776Z,0.98
2023-03-16T04:08:51.242Z,0.97
2023-03-16T04:11:19.747Z,0.96
2023-03-16T04:13:47.878Z,0.95
2023-03-16T04:16:16.529Z,0.94
2023-03-16T04:18:46.369Z,0.95
2023-03-16T04:21:17.003Z,0.96
2023-03-16T04:23:45.940Z,0.95
2023-03-16T04:26:13.353Z,0.94
2023-03-16T04:28:43.414Z,0.93
2023-03-16T04:31:12.309Z,0.95
2023-03-16T04:33:42.520Z,0.93
2023-03-16T04:36:10.179Z,0.93
2023-03-16T04:38:37.801Z,0.91
2023-03-16T04:41:06.500Z,0.89
2023-03-16T04:43:36.660Z,0.87
2023-03-16T04:46:09.572Z,0.84
2023-03-16T04:48:36.901Z,0.80
2023-03-16T04:51:05.980Z,0.80
2023-03-16T04:53:35.604Z,0.78
2023-03-16T04:56:08.776Z,0.77
2023-03-16T04:58:36.363Z,0.78
2023-03-16T05:01:04.172Z,0.78
2023-03-16T05:03:32.609Z,0.79
2023-03-16T05:05:59.961Z,0.82
2023-03-16T05:08:27.576Z,0.80
2023-03-16T05:10:59.159Z,0.78
2023-03-16T05:13:28.244Z,0.77
2023-03-16T05:15:58.774Z,0.76
2023-03-16T05:18:29.804Z,0.72
2023-03-16T05:20:56.955Z,0.70
2023-03-16T05:23:26.423Z,0.69
2023-03-16T05:25:59.977Z,0.67
2023-03-16T05:28:28.155Z,0.67
2023-03-16T05:31:03.741Z,0.68
2023-03-16T05:33:36.872Z,0.69
2023-03-16T05:36:07.609Z,0.70
2023-03-16T05:38:36.902Z,0.74
2023-03-16T05:41:06.062Z,0.77
2023-03-16T05:43:53.602Z,0.82
2023-03-16T05:46:21.933Z,0.85
2023-03-16T05:48:49.729Z,0.86
2023-03-16T05:51:18.967Z,0.87
2023-03-16T05:53:48.223Z,0.89
2023-03-16T05:56:25.801Z,0.94
2023-03-16T05:58:54.834Z,0.98
2023-03-16T06:01:23.573Z,1.04
2023-03-16T06:03:52.134Z,1.10
2023-03-16T06:06:22.772Z,1.17
2023-03-16T06:09:01.412Z,1.24
2023-03-16T06:11:29.159Z,1.32
2023-03-16T06:13:58.071Z,1.41
2023-03-16T06:16:25.717Z,1.50
2023-03-16T06:18:53.215Z,1.57
2023-03-16T06:21:20.682Z,1.63
2023-03-16T06:23:49.355Z,1.69
2023-03-16T06:26:16.453Z,1.73
2023-03-16T06:28:44.698Z,1.76
2023-03-16T06:31:12.623Z,1.81
2023-03-16T06:33:40.161Z,1.84
2023-03-16T06:36:07.803Z,1.90
2023-03-16T06:38:41.378Z,2.00
2023-03-16T06:41:14.674Z,2.10
2023-03-16T06:43:42.667Z,2.20
2023-03-16T06:46:11.321Z,2.32
2023-03-16T06:48:38.990Z,2.38
2023-03-16T06:51:07.756Z,2.43
2023-03-16T06:53:35.082Z,2.45
2023-03-16T06:56:02.288Z,2.44
2023-03-16T06:58:31.338Z,2.42
2023-03-16T07:01:02.245Z,2.41
2023-03-16T07:03:29.773Z,2.41
2023-03-16T07:06:00.306Z,2.44
2023-03-16T07:08:27.456Z,2.53
2023-03-16T07:10:54.732Z,2.64
2023-03-16T07:13:21.987Z,2.70
2023-03-16T07:15:52.576Z,2.74
2023-03-16T07:18:21.182Z,2.77
2023-03-16T07:20:48.301Z,2.82
2023-03-16T07:23:15.809Z,2.86
2023-03-16T07:25:44.763Z,2.91
2023-03-16T07:28:12.558Z,2.92
2023-03-16T07:30:50.560Z,2.93
2023-03-16T07:33:28.530Z,2.92
2023-03-16T07:35:55.674Z,2.95
2023-03-16T07:38:23.109Z,2.97
2023-03-16T07:40:54.469Z,2.95
2023-03-16T07:43:22.536Z,3.00
2023-03-16T07:45:51.964Z,3.10
2023-03-16T07:48:20.188Z,3.17
2023-03-16T07:50:51.782Z,3.25
2023-03-16T07:53:19.058Z,3.32
2023-03-16T07:55:49.778Z,3.39
2023-03-16T07:58:18.392Z,3.44
2023-03-16T08:00:46.331Z,3.48
2023-03-16T08:03:14.045Z,3.52
2023-03-16T08:05:41.821Z,3.57
2023-03-16T08:08:13.341Z,3.69
2023-03-16T08:10:41.753Z,3.79
2023-03-16T08:13:15.891Z,3.81
2023-03-16T08:15:55.961Z,3.82
2023-03-16T08:18:28.057Z,3.97
2023-03-16T08:20:55.385Z,4.06
2023-03-16T08:23:24.373Z,4.14
2023-03-16T08:25:56.702Z,4.21
2023-03-16T08:28:26.102Z,4.30
2023-03-16T08:30:55.674Z,4.35
2023-03-16T08:33:30.060Z,4.32
2023-03-16T08:35:57.573Z,4.31
2023-03-16T08:38:25.441Z,4.32
2023-03-16T08:40:53.151Z,4.29
2023-03-16T08:43:21.502Z,4.26
2023-03-16T08:45:49.320Z,4.28
2023-03-16T08:48:18.495Z,4.40
2023-03-16T08:50:48.883Z,4.55
2023-03-16T08:53:16.044Z,4.68
2023-03-16T08:55:43.296Z,4.81
2023-03-16T08:58:12.281Z,4.93
2023-03-16T09:00:40.108Z,5.06
2023-03-16T09:03:07.841Z,5.18
2023-03-16T09:05:35.038Z,5.24
2023-03-16T09:08:04.048Z,5.26
2023-03-16T09:10:32.505Z,5.21
2023-03-16T09:12:59.849Z,5.14
2023-03-16T09:15:27.398Z,5.16
2023-03-16T09:17:54.636Z,5.25
2023-03-16T09:20:26.171Z,5.30
2023-03-16T09:22:55.886Z,5.28
2023-03-16T09:25:25.500Z,5.29
2023-03-16T09:27:52.954Z,5.28
2023-03-16T09:30:20.897Z,5.26
2023-03-16T09:32:49.180Z,5.26
2023-03-16T09:35:16.590Z,5.24
2023-03-16T09:38:01.114Z,5.28
2023-03-16T09:40:32.142Z,5.35
2023-03-16T09:43:11.210Z,5.44
2023-03-16T09:45:49.254Z,5.63
2023-03-16T09:48:18.729Z,5.83
2023-03-16T09:50:49.022Z,5.98
2023-03-16T09:53:29.779Z,6.09
2023-03-16T09:56:10.652Z,6.21
2023-03-16T09:58:37.860Z,6.35
2023-03-16T10:01:24.408Z,6.46
2023-03-16T10:04:00.817Z,6.59
2023-03-16T10:06:28.619Z,6.63
2023-03-16T10:08:55.820Z,6.60
2023-03-16T10:11:28.833Z,6.55
2023-03-16T10:14:17.804Z,6.44
2023-03-16T10:16:45.292Z,6.32
2023-03-16T10:19:21.898Z,6.28
2023-03-16T10:21:52.744Z,6.21
2023-03-16T10:24:34.337Z,6.12
2023-03-16T10:27:04.928Z,6.03
2023-03-16T10:29:39.134Z,5.88
2023-03-16T10:32:14.694Z,5.74
2023-03-16T10:34:45.433Z,5.64
2023-03-16T10:37:14.099Z,5.72
2023-03-16T10:39:43.273Z,5.89
2023-03-16T10:42:20.119Z,5.96
2023-03-16T10:44:47.970Z,5.93
2023-03-16T10:47:24.422Z,5.85
2023-03-16T10:49:51.715Z,5.78
2023-03-16T10:52:46.973Z,5.77
2023-03-16T10:55:21.318Z,5.72
2023-03-16T10:57:51.307Z,5.62
2023-03-16T11:00:26.563Z,5.54
2023-03-16T11:02:55.400Z,5.46
2023-03-16T11:05:34.202Z,5.39
2023-03-16T11:08:09.510Z,5.32
2023-03-16T11:10:55.165Z,5.24
2023-03-16T11:13:32.311Z,5.12
2023-03-16T11:16:25.968Z,5.04
2023-03-16T11:18:58.426Z,4.97
2023-03-16T11:21:43.957Z,4.88
2023-03-16T11:24:20.255Z,4.84
2023-03-16T11:26:58.899Z,4.80
2023-03-16T11:29:45.383Z,4.73
2023-03-16T11:32:18.948Z,4.70
2023-03-16T11:34:47.967Z,4.73
2023-03-16T11:37:24.049Z,4.76
2023-03-16T11:39:54.081Z,4.73
2023-03-16T11:42:37.018Z,4.69
2023-03-16T11:45:13.565Z,4.67
2023-03-16T11:47:56.166Z,4.63
2023-03-16T11:50:28.444Z,4.62
2023-03-16T11:53:19.244Z,4.61
2023-03-16T11:56:11.789Z,4.61
2023-03-16T11:58:59.686Z,4.63
2023-03-16T12:01:54.401Z,4.65
2023-03-16T12:04:28.310Z,4.68
2023-03-16T12:07:09.323Z,4.68
2023-03-16T12:09:54.149Z,4.73
2023-03-16T12:12:57.163Z,4.81
2023-03-16T12:15:40.360Z,4.94
2023-03-16T12:18:23.476Z,5.09
2023-03-16T12:20:56.432Z,5.17
2023-03-16T12:23:29.778Z,5.23
2023-03-16T12:26:00.020Z,5.26
2023-03-16T12:28:30.065Z,5.22
2023-03-16T12:31:15.537Z,5.17
2023-03-16T12:33:55.032Z,5.14
2023-03-16T12:36:45.564Z,5.13
2023-03-16T12:39:31.343Z,5.12
2023-03-16T12:42:02.184Z,5.08
2023-03-16T12:44:49.249Z,5.04
2023-03-16T12:47:43.060Z,5.00
2023-03-16T12:50:15.652Z,4.99
2023-03-16T12:52:49.155Z,4.97
2023-03-16T12:55:35.071Z,4.91
2023-03-16T12:58:07.695Z,4.82
2023-03-16T13:00:43.228Z,4.75
2023-03-16T13:03:15.618Z,4.66
2023-03-16T13:05:50.387Z,4.65
2023-03-16T13:08:19.568Z,4.64
2023-03-16T13:11:10.238Z,4.64
2023-03-16T13:14:08.518Z,4.64
2023-03-16T13:16:37.633Z,4.67
2023-03-16T13:19:26.499Z,4.75
2023-03-16T13:22:04.750Z,4.81
2023-03-16T13:24:42.614Z,4.93
2023-03-16T13:27:33.610Z,5.10
2023-03-16T13:30:05.362Z,5.25
2023-03-16T13:32:33.949Z,5.35
2023-03-16T13:35:05.485Z,5.52
2023-03-16T13:37:33.093Z,5.65
2023-03-16T13:40:04.795Z,5.71
2023-03-16T13:42:33.666Z,5.70
2023-03-16T13:45:13.742Z,5.70
2023-03-16T13:47:45.484Z,5.76
2023-03-16T13:50:14.296Z,5.82
2023-03-16T13:52:44.314Z,5.82
2023-03-16T13:55:17.612Z,5.75
2023-03-16T13:57:46.395Z,5.65
2023-03-16T14:00:27.916Z,5.54
2023-03-16T14:02:57.952Z,5.45
2023-03-16T14:05:30.509Z,5.39
2023-03-16T14:08:00.698Z,5.33
2023-03-16T14:10:37.117Z,5.29
2023-03-16T14:13:22.460Z,5.23
2023-03-16T14:15:50.342Z,5.13
2023-03-16T14:18:21.951Z,5.09
2023-03-16T14:20:54.208Z,5.06
2023-03-16T14:23:23.200Z,5.04
2023-03-16T14:25:51.149Z,5.01
2023-03-16T14:28:21.296Z,4.98
2023-03-16T14:30:54.953Z,4.92
2023-03-16T14:33:28.901Z,4.91
2023-03-16T14:35:57.964Z,4.86
2023-03-16T14:38:33.070Z,4.81
2023-03-16T14:41:09.279Z,4.79
2023-03-16T14:43:40.377Z,4.80
2023-03-16T14:46:08.695Z,4.82
2023-03-16T14:48:36.340Z,4.85
2023-03-16T14:51:04.489Z,4.86
2023-03-16T14:53:31.964Z,4.87
2023-03-16T14:55:59.621Z,4.87
2023-03-16T14:58:26.894Z,4.85
2023-03-16T15:00:55.265Z,4.84
2023-03-16T15:03:33.739Z,4.82
2023-03-16T15:06:01.543Z,4.83
2023-03-16T15:08:32.355Z,4.83
2023-03-16T15:11:02.257Z,4.82
2023-03-16T15:13:42.587Z,4.80
2023-03-16T15:16:14.502Z,4.78
2023-03-16T15:18:42.758Z,4.74
2023-03-16T15:21:15.600Z,4.77
2023-03-16T15:23:43.972Z,4.79
2023-03-16T15:26:19.074Z,4.80
2023-03-16T15:28:46.149Z,4.81
2023-03-16T15:31:16.868Z,4.81
2023-03-16T15:33:45.450Z,4.83
2023-03-16T15:36:19.024Z,4.83
2023-03-16T15:38:48.910Z,4.83
2023-03-16T15:41:16.496Z,4.83
2023-03-16T15:43:45.827Z,4.83
2023-03-16T15:46:13.889Z,4.85
2023-03-16T15:48:41.341Z,4.86
2023-03-16T15:51:27.961Z,4.87
2023-03-16T15:53:59.926Z,4.89
2023-03-16T15:56:32.331Z,4.91
2023-03-16T15:59:06.271Z,4.94
2023-03-16T16:01:45.190Z,4.98
2023-03-16T16:04:20.456Z,5.02
2023-03-16T16:06:48.512Z,5.05
2023-03-16T16:09:15.942Z,5.05
2023-03-16T16:11:44.246Z,5.04
2023-03-16T16:14:25.588Z,5.03
2023-03-16T16:16:54.452Z,5.01
2023-03-16T16:19:21.727Z,4.98
2023-03-16T16:21:49.129Z,4.94
2023-03-16T16:24:18.299Z,4.88
2023-03-16T16:26:55.577Z,4.83
2023-03-16T16:29:32.138Z,4.79
2023-03-16T16:32:00.112Z,4.73
2023-03-16T16:34:28.077Z,4.70
2023-03-16T16:36:56.172Z,4.66
2023-03-16T16:39:24.434Z,4.63
2023-03-16T16:41:54.866Z,4.59
2023-03-16T16:44:27.364Z,4.56
2023-03-16T16:46:55.203Z,4.53
2023-03-16T16:49:26.291Z,4.52
2023-03-16T16:51:53.989Z,4.49
2023-03-16T16:54:24.156Z,4.44
2023-03-16T16:56:53.963Z,4.40
2023-03-16T16:59:29.107Z,4.36
2023-03-16T17:01:57.563Z,4.31
2023-03-16T17:04:27.522Z,4.24
2023-03-16T17:06:58.952Z,4.20
2023-03-16T17:09:27.866Z,4.15
2023-03-16T17:11:58.989Z,4.11
2023-03-16T17:14:28.452Z,4.09
2023-03-16T17:16:57.100Z,4.06
2023-03-16T17:19:28.199Z,4.05
2023-03-16T17:21:58.420Z,4.04
2023-03-16T17:24:26.104Z,4.04
2023-03-16T17:26:57.629Z,4.02
2023-03-16T17:29:30.033Z,3.98
2023-03-16T17:31:58.933Z,3.95
2023-03-16T17:34:28.940Z,3.91
2023-03-16T17:36:56.152Z,3.88
2023-03-16T17:39:25.912Z,3.87
2023-03-16T17:42:01.252Z,3.86
2023-03-16T17:44:34.520Z,3.85
2023-03-16T17:47:01.750Z,3.84
2023-03-16T17:49:30.857Z,3.80
2023-03-16T17:51:58.024Z,3.76
2023-03-16T17:54:25.352Z,3.74
2023-03-16T17:56:54.202Z,3.73
2023-03-16T17:59:23.280Z,3.70
2023-03-16T18:01:50.777Z,3.69
2023-03-16T18:04:21.214Z,3.67
2023-03-16T18:06:49.267Z,3.61
2023-03-16T18:09:18.575Z,3.55
2023-03-16T18:11:48.329Z,3.53
2023-03-16T18:14:34.933Z,3.50
2023-03-16T18:17:07.902Z,3.46
2023-03-16T18:19:36.198Z,3.40
2023-03-16T18:22:03.799Z,3.35
2023-03-16T18:24:31.836Z,3.32
2023-03-16T18:26:59.293Z,3.29
2023-03-16T18:29:26.339Z,3.26
2023-03-16T18:31:55.958Z,3.24
2023-03-16T18:34:27.995Z,3.26
2023-03-16T18:36:59.574Z,3.25
2023-03-16T18:39:27.573Z,3.22
2023-03-16T18:41:54.923Z,3.21
2023-03-16T18:44:26.024Z,3.19
2023-03-16T18:47:01.276Z,3.18
2023-03-16T18:49:33.965Z,3.19
2023-03-16T18:52:01.509Z,3.18
2023-03-16T18:54:31.367Z,3.16
2023-03-16T18:56:58.992Z,3.12
2023-03-16T18:59:26.697Z,3.11
2023-03-16T19:01:54.550Z,3.08
2023-03-16T19:04:25.056Z,3.07
2023-03-16T19:06:54.224Z,3.06
2023-03-16T19:09:25.781Z,3.04
2023-03-16T19:11:52.961Z,3.03
2023-03-16T19:14:26.811Z,3.01
2023-03-16T19:16:55.519Z,3.00
2023-03-16T19:19:24.453Z,3.01
2023-03-16T19:21:58.092Z,3.00
2023-03-16T19:24:41.579Z,2.97
2023-03-16T19:27:24.046Z,2.93
2023-03-16T19:29:53.745Z,2.87
2023-03-16T19:32:22.158Z,2.82
2023-03-16T19:34:49.609Z,2.76
2023-03-16T19:37:19.911Z,2.73
2023-03-16T19:39:47.241Z,2.72
2023-03-16T19:42:37.109Z,2.71
2023-03-16T19:45:05.700Z,2.70
2023-03-16T19:47:36.868Z,2.71
2023-03-16T19:50:21.033Z,2.69
2023-03-16T19:52:49.053Z,2.69
2023-03-16T19:55:19.198Z,2.69
2023-03-16T19:57:48.705Z,2.67
2023-03-16T20:00:26.146Z,2.64
2023-03-16T20:02:58.861Z,2.62
2023-03-16T20:05:29.194Z,2.60
2023-03-16T20:08:01.463Z,2.58
2023-03-16T20:10:32.799Z,2.54
2023-03-16T20:13:01.747Z,2.54
2023-03-16T20:15:32.586Z,2.54
2023-03-16T20:18:00.366Z,2.53
2023-03-16T20:20:30.360Z,2.52
2023-03-16T20:22:59.747Z,2.52
2023-03-16T20:25:31.480Z,2.52
2023-03-16T20:28:02.570Z,2.50
2023-03-16T20:30:30.963Z,2.48
2023-03-16T20:32:58.759Z,2.45
2023-03-16T20:35:28.987Z,2.43
2023-03-16T20:37:57.826Z,2.40
2023-03-16T20:40:25.111Z,2.37
2023-03-16T20:42:52.682Z,2.33
2023-03-16T20:45:23.810Z,2.29
2023-03-16T20:47:52.577Z,2.27
2023-03-16T20:50:25.915Z,2.26
2023-03-16T20:52:54.316Z,2.24
2023-03-16T20:55:27.234Z,2.25
2023-03-16T20:57:57.534Z,2.27
2023-03-16T21:00:27.033Z,2.26
2023-03-16T21:02:54.999Z,2.26
2023-03-16T21:05:24.020Z,2.24
2023-03-16T21:07:52.991Z,2.23
2023-03-16T21:10:24.196Z,2.19
2023-03-16T21:12:56.976Z,2.15
2023-03-16T21:15:33.512Z,2.08
2023-03-16T21:18:06.607Z,2.02
2023-03-16T21:20:35.913Z,2.00
2023-03-16T21:23:03.574Z,2.00
2023-03-16T21:25:34.534Z,1.96
2023-03-16T21:28:05.354Z,1.93
2023-03-16T21:30:34.099Z,1.94
2023-03-16T21:33:02.053Z,1.96
2023-03-16T21:35:35.318Z,1.97
2023-03-16T21:38:13.970Z,1.97
2023-03-16T21:40:41.398Z,1.94
2023-03-16T21:43:11.716Z,1.88
2023-03-16T21:45:40.182Z,1.87
2023-03-16T21:48:15.605Z,1.85
2023-03-16T21:50:43.209Z,1.84
2023-03-16T21:53:22.192Z,1.86
2023-03-16T21:55:50.925Z,1.89
2023-03-16T21:58:19.002Z,1.89
2023-03-16T22:00:47.359Z,1.90
2023-03-16T22:03:47.744Z,1.91
2023-03-16T22:06:17.230Z,1.94
2023-03-16T22:08:44.480Z,1.94
2023-03-16T22:11:17.058Z,1.92
2023-03-16T22:13:44.188Z,1.88
2023-03-16T22:16:18.081Z,1.82
2023-03-16T22:18:47.318Z,1.78
2023-03-16T22:21:33.221Z,1.75
2023-03-16T22:24:01.248Z,1.75
2023-03-16T22:26:29.548Z,1.71
2023-03-16T22:28:57.359Z,1.69
2023-03-16T22:31:34.235Z,1.70
2023-03-16T22:34:03.505Z,1.72
2023-03-16T22:36:31.684Z,1.73
2023-03-16T22:39:02.010Z,1.71
2023-03-16T22:41:29.775Z,1.70
2023-03-16T22:43:57.671Z,1.71
2023-03-16T22:46:27.146Z,1.72
2023-03-16T22:48:55.526Z,1.72
2023-03-16T22:51:34.635Z,1.70
2023-03-16T22:54:04.829Z,1.69
2023-03-16T22:56:33.389Z,1.69
2023-03-16T22:59:04.716Z,1.65
2023-03-16T23:01:38.959Z,1.63
2023-03-16T23:04:16.979Z,1.60
2023-03-16T23:06:45.237Z,1.57
2023-03-16T23:09:16.894Z,1.57
2023-03-16T23:11:46.442Z,1.59
2023-03-16T23:14:25.231Z,1.60
2023-03-16T23:16:52.826Z,1.61
2023-03-16T23:19:30.784Z,1.63
2023-03-16T23:22:03.561Z,1.63
2023-03-16T23:24:32.242Z,1.62
2023-03-16T23:27:00.415Z,1.58
2023-03-16T23:29:28.332Z,1.53
2023-03-16T23:31:55.871Z,1.52
2023-03-16T23:34:24.893Z,1.50
2023-03-16T23:36:52.617Z,1.49
2023-03-16T23:39:19.821Z,1.46
2023-03-16T23:41:49.269Z,1.44
2023-03-16T23:44:22.324Z,1.42
2023-03-16T23:46:50.020Z,1.41
2023-03-16T23:49:22.267Z,1.42
2023-03-16T23:51:50.383Z,1.43
2023-03-16T23:54:26.920Z,1.43
2023-03-16T23:56:54.047Z,1.42
2023-03-16T23:59:23.521Z,1.41
